sensor_id;sensor_type;location;lat;lon;timestamp;P1;durP1;ratioP1;P2;durP2;ratioP2
57730;SDS011;43570;47.476;19.040;2023-08-30T00:00:45;2.95;;;2.15;;
57730;SDS011;43570;47.476;19.040;2023-08-30T00:03:11;3.47;;;2.22;;
57730;SDS011;43570;47.476;19.040;2023-08-30T00:05:40;4.43;;;2.05;;
57730;SDS011;43570;47.476;19.040;2023-08-30T00:08:05;4.82;;;2.22;;
57730;SDS011;43570;47.476;19.040;2023-08-30T00:10:31;3.33;;;1.95;;
57730;SDS011;43570;47.476;19.040;2023-08-30T00:12:56;3.00;;;2.40;;
57730;SDS011;43570;47.476;19.040;2023-08-30T00:15:22;3.42;;;2.22;;
57730;SDS011;43570;47.476;19.040;2023-08-30T00:17:47;4.37;;;2.30;;
57730;SDS011;43570;47.476;19.040;2023-08-30T00:20:13;4.05;;;2.40;;
57730;SDS011;43570;47.476;19.040;2023-08-30T00:22:39;3.75;;;2.40;;
57730;SDS011;43570;47.476;19.040;2023-08-30T00:25:04;4.68;;;2.60;;
57730;SDS011;43570;47.476;19.040;2023-08-30T00:27:30;6.87;;;2.87;;
57730;SDS011;43570;47.476;19.040;2023-08-30T00:29:55;4.68;;;3.25;;
57730;SDS011;43570;47.476;19.040;2023-08-30T00:32:21;6.30;;;2.70;;
57730;SDS011;43570;47.476;19.040;2023-08-30T00:34:49;3.70;;;2.70;;
57730;SDS011;43570;47.476;19.040;2023-08-30T00:37:15;4.83;;;3.00;;
57730;SDS011;43570;47.476;19.040;2023-08-30T00:39:40;6.05;;;2.95;;
57730;SDS011;43570;47.476;19.040;2023-08-30T00:42:06;5.40;;;3.45;;
57730;SDS011;43570;47.476;19.040;2023-08-30T00:44:32;4.68;;;3.28;;
57730;SDS011;43570;47.476;19.040;2023-08-30T00:46:58;6.25;;;3.22;;
57730;SDS011;43570;47.476;19.040;2023-08-30T00:49:25;5.80;;;3.90;;
57730;SDS011;43570;47.476;19.040;2023-08-30T00:51:50;4.85;;;3.92;;
57730;SDS011;43570;47.476;19.040;2023-08-30T00:54:16;4.95;;;3.72;;
57730;SDS011;43570;47.476;19.040;2023-08-30T00:56:42;6.37;;;4.87;;
57730;SDS011;43570;47.476;19.040;2023-08-30T00:59:07;5.75;;;4.00;;
57730;SDS011;43570;47.476;19.040;2023-08-30T01:01:33;6.55;;;4.07;;
57730;SDS011;43570;47.476;19.040;2023-08-30T01:03:58;5.28;;;4.10;;
57730;SDS011;43570;47.476;19.040;2023-08-30T01:06:23;6.43;;;4.18;;
57730;SDS011;43570;47.476;19.040;2023-08-30T01:08:49;6.12;;;4.03;;
57730;SDS011;43570;47.476;19.040;2023-08-30T01:11:18;4.50;;;3.87;;
57730;SDS011;43570;47.476;19.040;2023-08-30T01:16:46;5.75;;;4.00;;
57730;SDS011;43570;47.476;19.040;2023-08-30T01:19:17;5.72;;;3.35;;
57730;SDS011;43570;47.476;19.040;2023-08-30T01:22:21;5.20;;;3.35;;
57730;SDS011;43570;47.476;19.040;2023-08-30T01:25:05;5.22;;;3.10;;
57730;SDS011;43570;47.476;19.040;2023-08-30T01:27:34;5.50;;;3.92;;
57730;SDS011;43570;47.476;19.040;2023-08-30T01:30:02;7.80;;;3.12;;
57730;SDS011;43570;47.476;19.040;2023-08-30T01:32:29;4.03;;;3.28;;
57730;SDS011;43570;47.476;19.040;2023-08-30T01:34:55;3.87;;;3.05;;
57730;SDS011;43570;47.476;19.040;2023-08-30T01:37:22;4.78;;;3.12;;
57730;SDS011;43570;47.476;19.040;2023-08-30T01:39:48;4.10;;;2.80;;
57730;SDS011;43570;47.476;19.040;2023-08-30T01:42:14;4.20;;;3.00;;
57730;SDS011;43570;47.476;19.040;2023-08-30T01:44:40;4.57;;;3.12;;
57730;SDS011;43570;47.476;19.040;2023-08-30T01:47:09;4.70;;;3.40;;
57730;SDS011;43570;47.476;19.040;2023-08-30T01:49:35;5.22;;;3.53;;
57730;SDS011;43570;47.476;19.040;2023-08-30T01:52:02;4.90;;;3.50;;
57730;SDS011;43570;47.476;19.040;2023-08-30T01:54:28;4.97;;;4.00;;
57730;SDS011;43570;47.476;19.040;2023-08-30T01:56:54;5.25;;;4.30;;
57730;SDS011;43570;47.476;19.040;2023-08-30T01:59:20;5.68;;;4.20;;
57730;SDS011;43570;47.476;19.040;2023-08-30T02:01:45;7.55;;;4.78;;
57730;SDS011;43570;47.476;19.040;2023-08-30T02:04:11;7.25;;;4.80;;
57730;SDS011;43570;47.476;19.040;2023-08-30T02:06:42;6.57;;;5.35;;
57730;SDS011;43570;47.476;19.040;2023-08-30T02:11:44;6.05;;;5.45;;
57730;SDS011;43570;47.476;19.040;2023-08-30T02:14:11;7.57;;;5.45;;
57730;SDS011;43570;47.476;19.040;2023-08-30T02:16:38;7.07;;;5.43;;
57730;SDS011;43570;47.476;19.040;2023-08-30T02:19:04;6.65;;;5.90;;
57730;SDS011;43570;47.476;19.040;2023-08-30T02:21:31;8.15;;;6.32;;
57730;SDS011;43570;47.476;19.040;2023-08-30T02:23:56;7.00;;;6.07;;
57730;SDS011;43570;47.476;19.040;2023-08-30T02:26:21;6.93;;;5.90;;
57730;SDS011;43570;47.476;19.040;2023-08-30T02:28:47;7.18;;;6.25;;
57730;SDS011;43570;47.476;19.040;2023-08-30T02:31:12;7.20;;;5.95;;
57730;SDS011;43570;47.476;19.040;2023-08-30T02:33:37;7.50;;;6.18;;
57730;SDS011;43570;47.476;19.040;2023-08-30T02:36:03;7.40;;;6.05;;
57730;SDS011;43570;47.476;19.040;2023-08-30T02:38:29;6.82;;;6.12;;
57730;SDS011;43570;47.476;19.040;2023-08-30T02:40:54;9.30;;;6.15;;
57730;SDS011;43570;47.476;19.040;2023-08-30T02:43:20;8.18;;;6.32;;
57730;SDS011;43570;47.476;19.040;2023-08-30T02:45:45;7.30;;;6.12;;
57730;SDS011;43570;47.476;19.040;2023-08-30T02:48:11;7.37;;;6.05;;
57730;SDS011;43570;47.476;19.040;2023-08-30T02:50:36;6.68;;;5.90;;
57730;SDS011;43570;47.476;19.040;2023-08-30T02:53:01;7.35;;;6.45;;
57730;SDS011;43570;47.476;19.040;2023-08-30T02:55:28;8.05;;;7.25;;
57730;SDS011;43570;47.476;19.040;2023-08-30T02:57:53;9.75;;;6.68;;
57730;SDS011;43570;47.476;19.040;2023-08-30T03:00:19;9.95;;;6.53;;
57730;SDS011;43570;47.476;19.040;2023-08-30T03:02:44;7.82;;;6.70;;
57730;SDS011;43570;47.476;19.040;2023-08-30T03:05:09;8.73;;;7.62;;
57730;SDS011;43570;47.476;19.040;2023-08-30T03:07:36;7.65;;;6.60;;
57730;SDS011;43570;47.476;19.040;2023-08-30T03:10:02;7.78;;;6.20;;
57730;SDS011;43570;47.476;19.040;2023-08-30T03:12:28;7.53;;;6.07;;
57730;SDS011;43570;47.476;19.040;2023-08-30T03:14:54;8.40;;;6.80;;
57730;SDS011;43570;47.476;19.040;2023-08-30T03:17:19;9.48;;;7.12;;
57730;SDS011;43570;47.476;19.040;2023-08-30T03:19:44;9.82;;;7.10;;
57730;SDS011;43570;47.476;19.040;2023-08-30T03:22:10;8.73;;;7.12;;
57730;SDS011;43570;47.476;19.040;2023-08-30T03:24:35;9.70;;;7.93;;
57730;SDS011;43570;47.476;19.040;2023-08-30T03:27:01;9.75;;;8.25;;
57730;SDS011;43570;47.476;19.040;2023-08-30T03:29:26;11.80;;;9.93;;
57730;SDS011;43570;47.476;19.040;2023-08-30T03:31:51;10.10;;;7.95;;
57730;SDS011;43570;47.476;19.040;2023-08-30T03:34:17;8.80;;;7.80;;
57730;SDS011;43570;47.476;19.040;2023-08-30T03:36:42;8.38;;;7.47;;
57730;SDS011;43570;47.476;19.040;2023-08-30T03:39:09;8.73;;;6.65;;
57730;SDS011;43570;47.476;19.040;2023-08-30T03:41:34;11.00;;;7.25;;
57730;SDS011;43570;47.476;19.040;2023-08-30T03:44:00;10.55;;;7.25;;
57730;SDS011;43570;47.476;19.040;2023-08-30T03:46:25;8.35;;;6.90;;
57730;SDS011;43570;47.476;19.040;2023-08-30T03:48:50;7.25;;;6.40;;
57730;SDS011;43570;47.476;19.040;2023-08-30T03:51:17;8.32;;;6.85;;
57730;SDS011;43570;47.476;19.040;2023-08-30T03:53:42;12.20;;;8.25;;
57730;SDS011;43570;47.476;19.040;2023-08-30T03:56:08;8.73;;;6.50;;
57730;SDS011;43570;47.476;19.040;2023-08-30T03:58:33;7.80;;;6.68;;
57730;SDS011;43570;47.476;19.040;2023-08-30T04:00:58;10.73;;;7.20;;
57730;SDS011;43570;47.476;19.040;2023-08-30T04:03:24;10.73;;;7.03;;
57730;SDS011;43570;47.476;19.040;2023-08-30T04:05:54;8.63;;;6.80;;
57730;SDS011;43570;47.476;19.040;2023-08-30T04:08:20;9.82;;;7.60;;
57730;SDS011;43570;47.476;19.040;2023-08-30T04:10:46;8.02;;;7.18;;
57730;SDS011;43570;47.476;19.040;2023-08-30T04:13:13;8.82;;;6.97;;
57730;SDS011;43570;47.476;19.040;2023-08-30T04:15:40;10.25;;;7.95;;
57730;SDS011;43570;47.476;19.040;2023-08-30T04:18:06;9.38;;;8.35;;
57730;SDS011;43570;47.476;19.040;2023-08-30T04:20:32;10.70;;;8.18;;
57730;SDS011;43570;47.476;19.040;2023-08-30T04:22:58;10.10;;;8.35;;
57730;SDS011;43570;47.476;19.040;2023-08-30T04:25:26;11.40;;;9.40;;
57730;SDS011;43570;47.476;19.040;2023-08-30T04:27:52;9.85;;;8.23;;
57730;SDS011;43570;47.476;19.040;2023-08-30T04:30:17;13.35;;;9.38;;
57730;SDS011;43570;47.476;19.040;2023-08-30T04:32:43;10.57;;;8.65;;
57730;SDS011;43570;47.476;19.040;2023-08-30T04:35:08;10.68;;;8.88;;
57730;SDS011;43570;47.476;19.040;2023-08-30T04:37:34;11.05;;;8.98;;
57730;SDS011;43570;47.476;19.040;2023-08-30T04:40:00;12.70;;;8.65;;
57730;SDS011;43570;47.476;19.040;2023-08-30T04:42:25;12.37;;;8.93;;
57730;SDS011;43570;47.476;19.040;2023-08-30T04:44:51;10.48;;;9.20;;
57730;SDS011;43570;47.476;19.040;2023-08-30T04:47:19;12.50;;;10.02;;
57730;SDS011;43570;47.476;19.040;2023-08-30T04:49:49;13.98;;;10.77;;
57730;SDS011;43570;47.476;19.040;2023-08-30T04:52:15;15.10;;;11.38;;
57730;SDS011;43570;47.476;19.040;2023-08-30T04:54:41;16.70;;;13.32;;
57730;SDS011;43570;47.476;19.040;2023-08-30T04:57:08;14.57;;;11.90;;
57730;SDS011;43570;47.476;19.040;2023-08-30T04:59:33;11.40;;;9.98;;
57730;SDS011;43570;47.476;19.040;2023-08-30T05:01:59;9.98;;;8.80;;
57730;SDS011;43570;47.476;19.040;2023-08-30T05:04:25;9.90;;;8.18;;
57730;SDS011;43570;47.476;19.040;2023-08-30T05:06:50;11.18;;;8.23;;
57730;SDS011;43570;47.476;19.040;2023-08-30T05:09:15;8.63;;;7.47;;
57730;SDS011;43570;47.476;19.040;2023-08-30T05:11:41;10.75;;;8.15;;
57730;SDS011;43570;47.476;19.040;2023-08-30T05:14:06;10.80;;;8.40;;
57730;SDS011;43570;47.476;19.040;2023-08-30T05:16:32;10.48;;;8.55;;
57730;SDS011;43570;47.476;19.040;2023-08-30T05:18:57;11.55;;;9.13;;
57730;SDS011;43570;47.476;19.040;2023-08-30T05:21:22;11.23;;;9.40;;
57730;SDS011;43570;47.476;19.040;2023-08-30T05:23:48;11.18;;;8.52;;
57730;SDS011;43570;47.476;19.040;2023-08-30T05:26:13;11.98;;;8.38;;
57730;SDS011;43570;47.476;19.040;2023-08-30T05:28:39;12.75;;;9.82;;
57730;SDS011;43570;47.476;19.040;2023-08-30T05:31:04;13.45;;;9.27;;
57730;SDS011;43570;47.476;19.040;2023-08-30T05:33:31;13.00;;;9.70;;
57730;SDS011;43570;47.476;19.040;2023-08-30T05:35:56;11.10;;;9.23;;
57730;SDS011;43570;47.476;19.040;2023-08-30T05:38:21;11.35;;;9.35;;
57730;SDS011;43570;47.476;19.040;2023-08-30T05:40:47;16.83;;;10.07;;
57730;SDS011;43570;47.476;19.040;2023-08-30T05:43:14;12.63;;;9.95;;
57730;SDS011;43570;47.476;19.040;2023-08-30T05:45:41;13.23;;;9.82;;
57730;SDS011;43570;47.476;19.040;2023-08-30T05:48:06;12.27;;;9.18;;
57730;SDS011;43570;47.476;19.040;2023-08-30T05:50:31;11.32;;;9.10;;
57730;SDS011;43570;47.476;19.040;2023-08-30T05:52:57;14.68;;;9.52;;
57730;SDS011;43570;47.476;19.040;2023-08-30T05:55:22;11.60;;;9.15;;
57730;SDS011;43570;47.476;19.040;2023-08-30T05:57:48;10.27;;;8.52;;
57730;SDS011;43570;47.476;19.040;2023-08-30T06:00:13;10.38;;;8.05;;
57730;SDS011;43570;47.476;19.040;2023-08-30T06:02:39;12.02;;;8.50;;
57730;SDS011;43570;47.476;19.040;2023-08-30T06:05:05;12.48;;;9.73;;
57730;SDS011;43570;47.476;19.040;2023-08-30T06:07:32;11.57;;;9.20;;
57730;SDS011;43570;47.476;19.040;2023-08-30T06:09:57;12.02;;;9.20;;
57730;SDS011;43570;47.476;19.040;2023-08-30T06:12:23;13.18;;;10.07;;
57730;SDS011;43570;47.476;19.040;2023-08-30T06:14:49;11.10;;;8.82;;
57730;SDS011;43570;47.476;19.040;2023-08-30T06:17:17;10.63;;;9.18;;
57730;SDS011;43570;47.476;19.040;2023-08-30T06:19:44;11.23;;;9.70;;
57730;SDS011;43570;47.476;19.040;2023-08-30T06:22:10;11.93;;;9.85;;
57730;SDS011;43570;47.476;19.040;2023-08-30T06:24:35;11.93;;;10.13;;
57730;SDS011;43570;47.476;19.040;2023-08-30T06:27:01;11.30;;;9.65;;
57730;SDS011;43570;47.476;19.040;2023-08-30T06:29:26;11.80;;;9.90;;
57730;SDS011;43570;47.476;19.040;2023-08-30T06:31:52;14.40;;;12.00;;
57730;SDS011;43570;47.476;19.040;2023-08-30T06:34:17;13.57;;;9.77;;
57730;SDS011;43570;47.476;19.040;2023-08-30T06:36:43;13.52;;;11.15;;
57730;SDS011;43570;47.476;19.040;2023-08-30T06:39:08;11.77;;;10.57;;
57730;SDS011;43570;47.476;19.040;2023-08-30T06:41:33;13.43;;;9.93;;
57730;SDS011;43570;47.476;19.040;2023-08-30T06:43:59;13.98;;;10.50;;
57730;SDS011;43570;47.476;19.040;2023-08-30T06:46:24;13.52;;;10.70;;
57730;SDS011;43570;47.476;19.040;2023-08-30T06:48:50;12.10;;;9.85;;
57730;SDS011;43570;47.476;19.040;2023-08-30T06:51:15;11.52;;;10.35;;
57730;SDS011;43570;47.476;19.040;2023-08-30T06:53:40;11.88;;;10.50;;
57730;SDS011;43570;47.476;19.040;2023-08-30T06:56:06;13.80;;;10.10;;
57730;SDS011;43570;47.476;19.040;2023-08-30T06:58:31;11.48;;;10.27;;
57730;SDS011;43570;47.476;19.040;2023-08-30T07:00:57;11.55;;;10.30;;
57730;SDS011;43570;47.476;19.040;2023-08-30T07:03:22;11.70;;;10.00;;
57730;SDS011;43570;47.476;19.040;2023-08-30T07:05:48;11.52;;;9.48;;
57730;SDS011;43570;47.476;19.040;2023-08-30T07:08:16;13.62;;;10.32;;
57730;SDS011;43570;47.476;19.040;2023-08-30T07:10:41;12.40;;;9.90;;
57730;SDS011;43570;47.476;19.040;2023-08-30T07:13:07;10.48;;;9.40;;
57730;SDS011;43570;47.476;19.040;2023-08-30T07:15:36;12.55;;;10.00;;
57730;SDS011;43570;47.476;19.040;2023-08-30T07:18:01;11.65;;;9.85;;
57730;SDS011;43570;47.476;19.040;2023-08-30T07:20:28;15.07;;;11.07;;
57730;SDS011;43570;47.476;19.040;2023-08-30T07:22:54;12.20;;;10.80;;
57730;SDS011;43570;47.476;19.040;2023-08-30T07:25:19;13.62;;;10.98;;
57730;SDS011;43570;47.476;19.040;2023-08-30T07:27:45;11.57;;;9.90;;
57730;SDS011;43570;47.476;19.040;2023-08-30T07:30:10;12.10;;;9.68;;
57730;SDS011;43570;47.476;19.040;2023-08-30T07:41:41;12.63;;;10.52;;
57730;SDS011;43570;47.476;19.040;2023-08-30T07:44:07;10.75;;;9.48;;
57730;SDS011;43570;47.476;19.040;2023-08-30T07:46:32;12.13;;;10.32;;
57730;SDS011;43570;47.476;19.040;2023-08-30T07:48:59;10.70;;;9.60;;
57730;SDS011;43570;47.476;19.040;2023-08-30T07:51:25;12.80;;;10.07;;
57730;SDS011;43570;47.476;19.040;2023-08-30T07:53:50;10.45;;;9.02;;
57730;SDS011;43570;47.476;19.040;2023-08-30T07:56:16;11.10;;;10.00;;
57730;SDS011;43570;47.476;19.040;2023-08-30T07:58:41;12.25;;;10.40;;
57730;SDS011;43570;47.476;19.040;2023-08-30T08:01:07;12.48;;;10.57;;
57730;SDS011;43570;47.476;19.040;2023-08-30T08:03:33;12.80;;;11.38;;
57730;SDS011;43570;47.476;19.040;2023-08-30T08:05:58;11.23;;;10.13;;
57730;SDS011;43570;47.476;19.040;2023-08-30T08:08:27;13.02;;;10.65;;
57730;SDS011;43570;47.476;19.040;2023-08-30T08:10:52;11.73;;;10.52;;
57730;SDS011;43570;47.476;19.040;2023-08-30T08:13:17;12.85;;;10.18;;
57730;SDS011;43570;47.476;19.040;2023-08-30T08:15:43;13.38;;;11.55;;
57730;SDS011;43570;47.476;19.040;2023-08-30T08:18:09;12.95;;;10.82;;
57730;SDS011;43570;47.476;19.040;2023-08-30T08:20:35;13.73;;;11.98;;
57730;SDS011;43570;47.476;19.040;2023-08-30T08:23:01;13.45;;;11.35;;
57730;SDS011;43570;47.476;19.040;2023-08-30T08:25:27;12.40;;;10.35;;
57730;SDS011;43570;47.476;19.040;2023-08-30T08:27:53;14.35;;;10.95;;
57730;SDS011;43570;47.476;19.040;2023-08-30T08:30:19;11.48;;;10.27;;
57730;SDS011;43570;47.476;19.040;2023-08-30T08:32:45;14.63;;;10.68;;
57730;SDS011;43570;47.476;19.040;2023-08-30T08:35:12;13.77;;;9.73;;
57730;SDS011;43570;47.476;19.040;2023-08-30T08:37:38;12.18;;;10.32;;
57730;SDS011;43570;47.476;19.040;2023-08-30T08:40:03;11.45;;;10.27;;
57730;SDS011;43570;47.476;19.040;2023-08-30T08:42:33;15.40;;;11.30;;
57730;SDS011;43570;47.476;19.040;2023-08-30T08:45:00;12.23;;;9.88;;
57730;SDS011;43570;47.476;19.040;2023-08-30T08:47:27;11.27;;;9.60;;
57730;SDS011;43570;47.476;19.040;2023-08-30T08:49:55;11.38;;;9.45;;
57730;SDS011;43570;47.476;19.040;2023-08-30T08:52:20;12.90;;;9.63;;
57730;SDS011;43570;47.476;19.040;2023-08-30T08:54:46;10.77;;;8.90;;
57730;SDS011;43570;47.476;19.040;2023-08-30T08:57:11;11.73;;;8.73;;
57730;SDS011;43570;47.476;19.040;2023-08-30T08:59:37;11.00;;;8.60;;
57730;SDS011;43570;47.476;19.040;2023-08-30T09:02:03;9.48;;;8.57;;
57730;SDS011;43570;47.476;19.040;2023-08-30T09:04:30;12.95;;;9.38;;
57730;SDS011;43570;47.476;19.040;2023-08-30T09:06:55;9.35;;;8.13;;
57730;SDS011;43570;47.476;19.040;2023-08-30T09:09:21;10.90;;;9.45;;
57730;SDS011;43570;47.476;19.040;2023-08-30T09:11:47;10.57;;;8.88;;
57730;SDS011;43570;47.476;19.040;2023-08-30T09:14:12;9.77;;;8.73;;
57730;SDS011;43570;47.476;19.040;2023-08-30T09:16:38;9.55;;;8.43;;
57730;SDS011;43570;47.476;19.040;2023-08-30T09:19:04;10.55;;;8.98;;
57730;SDS011;43570;47.476;19.040;2023-08-30T09:21:30;10.07;;;8.40;;
57730;SDS011;43570;47.476;19.040;2023-08-30T09:23:59;10.23;;;9.07;;
57730;SDS011;43570;47.476;19.040;2023-08-30T09:26:29;9.50;;;8.50;;
57730;SDS011;43570;47.476;19.040;2023-08-30T09:29:00;11.75;;;9.10;;
57730;SDS011;43570;47.476;19.040;2023-08-30T09:31:32;11.50;;;9.07;;
57730;SDS011;43570;47.476;19.040;2023-08-30T09:33:58;10.35;;;8.68;;
57730;SDS011;43570;47.476;19.040;2023-08-30T09:36:24;11.90;;;9.18;;
57730;SDS011;43570;47.476;19.040;2023-08-30T09:38:49;10.32;;;8.82;;
57730;SDS011;43570;47.476;19.040;2023-08-30T09:41:15;11.07;;;9.18;;
57730;SDS011;43570;47.476;19.040;2023-08-30T09:43:43;11.18;;;8.70;;
57730;SDS011;43570;47.476;19.040;2023-08-30T09:46:09;10.52;;;8.80;;
57730;SDS011;43570;47.476;19.040;2023-08-30T09:48:34;10.85;;;8.98;;
57730;SDS011;43570;47.476;19.040;2023-08-30T09:51:02;9.82;;;7.93;;
57730;SDS011;43570;47.476;19.040;2023-08-30T09:53:28;8.27;;;7.28;;
57730;SDS011;43570;47.476;19.040;2023-08-30T09:55:55;10.27;;;7.80;;
57730;SDS011;43570;47.476;19.040;2023-08-30T09:58:21;10.27;;;7.97;;
57730;SDS011;43570;47.476;19.040;2023-08-30T10:00:46;10.40;;;7.53;;
57730;SDS011;43570;47.476;19.040;2023-08-30T10:03:13;8.10;;;7.15;;
57730;SDS011;43570;47.476;19.040;2023-08-30T10:05:39;7.93;;;6.70;;
57730;SDS011;43570;47.476;19.040;2023-08-30T10:08:06;8.57;;;6.82;;
57730;SDS011;43570;47.476;19.040;2023-08-30T10:10:34;9.55;;;7.62;;
57730;SDS011;43570;47.476;19.040;2023-08-30T10:13:01;8.80;;;7.45;;
57730;SDS011;43570;47.476;19.040;2023-08-30T10:15:27;9.88;;;7.90;;
57730;SDS011;43570;47.476;19.040;2023-08-30T10:17:54;9.52;;;8.30;;
57730;SDS011;43570;47.476;19.040;2023-08-30T10:20:20;9.15;;;7.90;;
57730;SDS011;43570;47.476;19.040;2023-08-30T10:22:46;10.68;;;8.13;;
57730;SDS011;43570;47.476;19.040;2023-08-30T10:25:17;8.30;;;7.05;;
57730;SDS011;43570;47.476;19.040;2023-08-30T10:27:46;8.05;;;6.70;;
57730;SDS011;43570;47.476;19.040;2023-08-30T10:30:13;8.82;;;6.53;;
57730;SDS011;43570;47.476;19.040;2023-08-30T10:32:40;9.10;;;6.05;;
57730;SDS011;43570;47.476;19.040;2023-08-30T10:35:06;8.10;;;6.12;;
57730;SDS011;43570;47.476;19.040;2023-08-30T10:37:31;8.25;;;6.43;;
57730;SDS011;43570;47.476;19.040;2023-08-30T10:40:00;8.48;;;7.28;;
57730;SDS011;43570;47.476;19.040;2023-08-30T10:42:29;9.50;;;6.07;;
57730;SDS011;43570;47.476;19.040;2023-08-30T10:45:07;8.50;;;5.57;;
57730;SDS011;43570;47.476;19.040;2023-08-30T10:47:36;9.55;;;5.47;;
57730;SDS011;43570;47.476;19.040;2023-08-30T10:50:12;6.85;;;4.90;;
57730;SDS011;43570;47.476;19.040;2023-08-30T10:52:38;7.72;;;5.72;;
57730;SDS011;43570;47.476;19.040;2023-08-30T10:55:22;6.22;;;4.80;;
57730;SDS011;43570;47.476;19.040;2023-08-30T10:57:59;7.55;;;4.78;;
57730;SDS011;43570;47.476;19.040;2023-08-30T11:04:45;7.95;;;5.53;;
57730;SDS011;43570;47.476;19.040;2023-08-30T11:07:10;8.55;;;5.25;;
57730;SDS011;43570;47.476;19.040;2023-08-30T11:09:42;5.97;;;4.60;;
57730;SDS011;43570;47.476;19.040;2023-08-30T11:12:49;7.30;;;4.75;;
57730;SDS011;43570;47.476;19.040;2023-08-30T11:15:31;6.45;;;4.15;;
57730;SDS011;43570;47.476;19.040;2023-08-30T11:18:05;5.43;;;4.15;;
57730;SDS011;43570;47.476;19.040;2023-08-30T11:20:43;5.68;;;4.00;;
57730;SDS011;43570;47.476;19.040;2023-08-30T11:23:09;5.03;;;3.83;;
57730;SDS011;43570;47.476;19.040;2023-08-30T11:25:34;5.55;;;3.95;;
57730;SDS011;43570;47.476;19.040;2023-08-30T11:28:03;5.90;;;3.92;;
57730;SDS011;43570;47.476;19.040;2023-08-30T11:30:29;5.68;;;3.70;;
57730;SDS011;43570;47.476;19.040;2023-08-30T11:32:58;6.60;;;4.10;;
57730;SDS011;43570;47.476;19.040;2023-08-30T11:35:23;4.07;;;3.03;;
57730;SDS011;43570;47.476;19.040;2023-08-30T11:40:41;5.10;;;3.47;;
57730;SDS011;43570;47.476;19.040;2023-08-30T11:43:15;5.65;;;3.22;;
57730;SDS011;43570;47.476;19.040;2023-08-30T11:45:44;6.78;;;3.55;;
57730;SDS011;43570;47.476;19.040;2023-08-30T11:48:09;8.55;;;4.07;;
57730;SDS011;43570;47.476;19.040;2023-08-30T11:50:35;7.40;;;4.20;;
57730;SDS011;43570;47.476;19.040;2023-08-30T11:53:01;5.35;;;3.20;;
57730;SDS011;43570;47.476;19.040;2023-08-30T11:55:27;5.85;;;3.08;;
57730;SDS011;43570;47.476;19.040;2023-08-30T11:57:53;4.35;;;3.20;;
57730;SDS011;43570;47.476;19.040;2023-08-30T12:00:18;4.87;;;3.28;;
57730;SDS011;43570;47.476;19.040;2023-08-30T12:02:47;5.15;;;3.40;;
57730;SDS011;43570;47.476;19.040;2023-08-30T12:05:13;5.15;;;3.17;;
57730;SDS011;43570;47.476;19.040;2023-08-30T12:07:39;6.43;;;3.65;;
57730;SDS011;43570;47.476;19.040;2023-08-30T12:10:11;5.28;;;3.85;;
57730;SDS011;43570;47.476;19.040;2023-08-30T12:12:38;5.03;;;3.67;;
57730;SDS011;43570;47.476;19.040;2023-08-30T12:15:12;5.97;;;3.55;;
57730;SDS011;43570;47.476;19.040;2023-08-30T12:17:40;5.37;;;3.17;;
57730;SDS011;43570;47.476;19.040;2023-08-30T12:20:05;5.10;;;3.00;;
57730;SDS011;43570;47.476;19.040;2023-08-30T12:22:38;7.93;;;5.65;;
57730;SDS011;43570;47.476;19.040;2023-08-30T12:25:04;5.95;;;4.07;;
57730;SDS011;43570;47.476;19.040;2023-08-30T12:27:42;8.43;;;3.62;;
57730;SDS011;43570;47.476;19.040;2023-08-30T12:30:08;4.62;;;3.05;;
57730;SDS011;43570;47.476;19.040;2023-08-30T12:32:33;5.53;;;3.60;;
57730;SDS011;43570;47.476;19.040;2023-08-30T12:34:58;3.47;;;2.72;;
57730;SDS011;43570;47.476;19.040;2023-08-30T12:37:24;4.55;;;2.70;;
57730;SDS011;43570;47.476;19.040;2023-08-30T12:39:49;4.50;;;3.37;;
57730;SDS011;43570;47.476;19.040;2023-08-30T12:42:15;4.95;;;3.58;;
57730;SDS011;43570;47.476;19.040;2023-08-30T12:44:40;5.40;;;3.60;;
57730;SDS011;43570;47.476;19.040;2023-08-30T12:47:06;5.30;;;3.58;;
57730;SDS011;43570;47.476;19.040;2023-08-30T12:49:31;5.53;;;3.72;;
57730;SDS011;43570;47.476;19.040;2023-08-30T12:51:56;4.43;;;3.20;;
57730;SDS011;43570;47.476;19.040;2023-08-30T12:54:22;5.60;;;3.60;;
57730;SDS011;43570;47.476;19.040;2023-08-30T12:56:50;5.35;;;3.53;;
57730;SDS011;43570;47.476;19.040;2023-08-30T12:59:16;6.45;;;4.00;;
57730;SDS011;43570;47.476;19.040;2023-08-30T13:01:41;7.15;;;3.80;;
57730;SDS011;43570;47.476;19.040;2023-08-30T13:04:07;5.35;;;3.50;;
57730;SDS011;43570;47.476;19.040;2023-08-30T13:06:33;4.62;;;3.33;;
57730;SDS011;43570;47.476;19.040;2023-08-30T13:08:58;4.87;;;3.55;;
57730;SDS011;43570;47.476;19.040;2023-08-30T13:11:23;6.75;;;3.85;;
57730;SDS011;43570;47.476;19.040;2023-08-30T13:13:51;6.90;;;3.75;;
57730;SDS011;43570;47.476;19.040;2023-08-30T13:16:16;5.97;;;3.62;;
57730;SDS011;43570;47.476;19.040;2023-08-30T13:18:44;5.70;;;3.67;;
57730;SDS011;43570;47.476;19.040;2023-08-30T13:21:10;6.05;;;3.78;;
57730;SDS011;43570;47.476;19.040;2023-08-30T13:23:35;5.35;;;3.30;;
57730;SDS011;43570;47.476;19.040;2023-08-30T13:26:00;7.30;;;4.05;;
57730;SDS011;43570;47.476;19.040;2023-08-30T13:28:26;5.50;;;3.70;;
57730;SDS011;43570;47.476;19.040;2023-08-30T13:30:52;5.37;;;3.67;;
57730;SDS011;43570;47.476;19.040;2023-08-30T13:33:19;4.87;;;3.50;;
57730;SDS011;43570;47.476;19.040;2023-08-30T13:35:48;5.90;;;3.87;;
57730;SDS011;43570;47.476;19.040;2023-08-30T13:38:15;6.15;;;3.50;;
57730;SDS011;43570;47.476;19.040;2023-08-30T13:40:40;5.18;;;3.40;;
57730;SDS011;43570;47.476;19.040;2023-08-30T13:43:06;4.93;;;3.58;;
57730;SDS011;43570;47.476;19.040;2023-08-30T13:45:32;4.82;;;3.25;;
57730;SDS011;43570;47.476;19.040;2023-08-30T13:47:58;5.00;;;3.55;;
57730;SDS011;43570;47.476;19.040;2023-08-30T13:50:25;4.10;;;3.00;;
57730;SDS011;43570;47.476;19.040;2023-08-30T13:52:55;4.53;;;2.97;;
57730;SDS011;43570;47.476;19.040;2023-08-30T13:55:22;4.65;;;3.20;;
57730;SDS011;43570;47.476;19.040;2023-08-30T13:57:47;3.55;;;2.72;;
57730;SDS011;43570;47.476;19.040;2023-08-30T14:00:14;4.15;;;2.97;;
57730;SDS011;43570;47.476;19.040;2023-08-30T14:02:41;5.25;;;2.97;;
57730;SDS011;43570;47.476;19.040;2023-08-30T14:05:07;5.47;;;2.92;;
57730;SDS011;43570;47.476;19.040;2023-08-30T14:07:33;4.57;;;3.33;;
57730;SDS011;43570;47.476;19.040;2023-08-30T14:09:59;6.15;;;3.62;;
57730;SDS011;43570;47.476;19.040;2023-08-30T14:12:31;8.25;;;3.80;;
57730;SDS011;43570;47.476;19.040;2023-08-30T14:15:08;5.93;;;3.22;;
57730;SDS011;43570;47.476;19.040;2023-08-30T14:17:34;5.25;;;3.72;;
57730;SDS011;43570;47.476;19.040;2023-08-30T14:19:59;5.57;;;3.60;;
57730;SDS011;43570;47.476;19.040;2023-08-30T14:22:26;4.70;;;3.53;;
57730;SDS011;43570;47.476;19.040;2023-08-30T14:24:51;5.12;;;3.40;;
57730;SDS011;43570;47.476;19.040;2023-08-30T14:27:17;5.72;;;3.45;;
57730;SDS011;43570;47.476;19.040;2023-08-30T14:29:43;6.10;;;3.50;;
57730;SDS011;43570;47.476;19.040;2023-08-30T14:32:10;7.93;;;3.80;;
57730;SDS011;43570;47.476;19.040;2023-08-30T14:34:35;18.02;;;13.57;;
57730;SDS011;43570;47.476;19.040;2023-08-30T14:37:01;28.62;;;20.50;;
57730;SDS011;43570;47.476;19.040;2023-08-30T14:39:27;4.72;;;3.25;;
57730;SDS011;43570;47.476;19.040;2023-08-30T14:41:52;4.62;;;2.95;;
57730;SDS011;43570;47.476;19.040;2023-08-30T14:44:18;5.60;;;3.47;;
57730;SDS011;43570;47.476;19.040;2023-08-30T14:46:45;4.75;;;3.17;;